Time;durP1;ratioP1;P1;durP2;ratioP2;P2;SDS_P1;SDS_P2;PMS_P1;PMS_P2;Temp;Humidity;BMP_temperature;BMP_pressure;BME280_temperature;BME280_humidity;BME280_pressure;Samples;Min_cycle;Max_cycle;Signal;HPM_P1;HPM_P2
2023/02/16 00:00:32;;;;;;;52.00;29.10;;;9.20;99.90;;;;;;6247578;23;20239;-77
2023/02/16 00:02:58;;;;;;;47.47;29.00;;;9.10;99.90;;;;;;6247601;23;20174;-76
2023/02/16 00:05:29;;;;;;;55.80;29.97;;;8.90;99.90;;;;;;6247448;23;20133;-77
2023/02/16 00:07:56;;;;;;;54.83;30.77;;;9.00;99.90;;;;;;6247105;23;20129;-76
2023/02/16 00:10:23;;;;;;;52.63;31.43;;;9.10;99.90;;;;;;6219652;23;20152;-76
2023/02/16 00:15:34;;;;;;;55.60;30.93;;;9.20;99.90;;;;;;6247180;23;20592;-76
2023/02/16 00:18:01;;;;;;;59.30;33.17;;;9.40;99.90;;;;;;6247127;23;20136;-77
2023/02/16 00:20:29;;;;;;;54.60;31.03;;;9.40;99.90;;;;;;6246639;23;20486;-76
2023/02/16 00:22:55;;;;;;;57.00;31.93;;;9.50;99.90;;;;;;6220527;23;20169;-77
2023/02/16 00:25:21;;;;;;;55.77;32.57;;;9.40;99.90;;;;;;6220251;23;20624;-76
2023/02/16 00:27:47;;;;;;;57.03;31.30;;;9.40;99.90;;;;;;6220208;23;20177;-77
2023/02/16 00:30:18;;;;;;;56.70;31.33;;;9.10;99.90;;;;;;6247165;23;20132;-77
2023/02/16 00:32:44;;;;;;;60.90;32.27;;;8.90;99.90;;;;;;6220432;23;20616;-77
2023/02/16 00:35:14;;;;;;;57.70;32.60;;;9.00;99.90;;;;;;6246999;23;20131;-77
2023/02/16 00:37:40;;;;;;;58.17;33.00;;;8.90;99.90;;;;;;6247128;23;20143;-77
2023/02/16 00:40:06;;;;;;;56.37;31.10;;;9.00;99.90;;;;;;6245463;23;20167;-76
2023/02/16 00:42:33;;;;;;;55.53;31.50;;;9.00;99.90;;;;;;6246963;23;20156;-76
2023/02/16 00:44:59;;;;;;;54.43;31.13;;;9.00;99.90;;;;;;6219845;23;20132;-76
2023/02/16 00:47:36;;;;;;;55.37;31.10;;;9.10;99.90;;;;;;6246623;23;20140;-76
2023/02/16 00:50:06;;;;;;;54.40;33.03;;;9.20;99.90;;;;;;6246360;23;20134;-77
2023/02/16 00:52:34;;;;;;;53.53;30.33;;;9.00;99.90;;;;;;6246379;23;20151;-76
2023/02/16 00:55:05;;;;;;;53.93;32.13;;;8.90;99.90;;;;;;6219480;23;20174;-75
2023/02/16 00:57:35;;;;;;;57.90;33.53;;;8.80;99.90;;;;;;6246432;23;20202;-76
2023/02/16 01:00:15;;;;;;;58.17;32.07;;;8.80;99.90;;;;;;6246546;23;20163;-76
2023/02/16 01:02:43;;;;;;;58.80;33.03;;;8.80;99.90;;;;;;6219960;23;20139;-76
2023/02/16 01:05:09;;;;;;;52.97;31.80;;;8.60;99.90;;;;;;6245723;23;20137;-76
2023/02/16 01:13:04;;;;;;;59.00;33.10;;;8.90;99.90;;;;;;6246041;23;20194;-76
2023/02/16 01:15:30;;;;;;;56.47;32.80;;;8.80;99.90;;;;;;6245731;23;20136;-76
2023/02/16 01:17:56;;;;;;;58.57;31.70;;;8.80;99.90;;;;;;6218810;23;20201;-76
2023/02/16 01:20:24;;;;;;;57.77;31.97;;;8.70;99.90;;;;;;6218717;23;20619;-76
2023/02/16 01:22:51;;;;;;;54.00;31.73;;;8.80;99.90;;;;;;6219027;23;20148;-76
2023/02/16 01:25:16;;;;;;;54.93;32.60;;;8.90;99.90;;;;;;6245835;23;20158;-76
2023/02/16 01:27:43;;;;;;;55.53;33.47;;;8.90;99.90;;;;;;6245906;23;20132;-76
2023/02/16 01:30:17;;;;;;;55.17;32.53;;;8.90;99.90;;;;;;6219419;23;20230;-76
2023/02/16 01:32:46;;;;;;;51.10;31.27;;;8.80;99.90;;;;;;6219077;23;20569;-76
2023/02/16 01:35:13;;;;;;;53.60;31.20;;;8.80;99.90;;;;;;6246079;23;20128;-76
2023/02/16 01:37:39;;;;;;;53.90;31.60;;;8.90;99.90;;;;;;6246006;23;20136;-76
2023/02/16 01:40:05;;;;;;;50.50;30.63;;;8.70;99.90;;;;;;6245995;23;20617;-76
2023/02/16 01:42:43;;;;;;;51.37;29.23;;;8.70;99.90;;;;;;6245424;23;20158;-77
2023/02/16 01:45:23;;;;;;;49.40;28.43;;;8.60;99.90;;;;;;6218953;23;20143;-76
2023/02/16 01:48:01;;;;;;;50.67;29.67;;;8.60;99.90;;;;;;6245368;23;20178;-77
2023/02/16 01:50:56;;;;;;;50.03;29.70;;;8.80;99.90;;;;;;6245555;23;20135;-76
2023/02/16 01:53:35;;;;;;;52.70;31.57;;;8.70;99.90;;;;;;6245512;23;20153;-76
2023/02/16 01:56:04;;;;;;;52.63;31.23;;;8.80;99.90;;;;;;6218563;23;20193;-76
2023/02/16 01:58:41;;;;;;;47.40;29.30;;;8.80;99.90;;;;;;6245373;23;20174;-76
2023/02/16 02:01:35;;;;;;;52.53;30.27;;;9.00;99.90;;;;;;6218855;23;20185;-76
2023/02/16 02:06:54;;;;;;;49.43;28.23;;;9.00;99.90;;;;;;6245397;23;20604;-76
2023/02/16 02:09:31;;;;;;;50.07;29.60;;;9.00;99.90;;;;;;6245716;23;20131;-76
2023/02/16 02:12:36;;;;;;;46.27;28.13;;;9.00;99.90;;;;;;6245803;23;20140;-77
2023/02/16 02:15:01;;;;;;;45.57;26.73;;;9.00;99.90;;;;;;6243512;23;20158;-76
2023/02/16 02:17:28;;;;;;;44.30;27.83;;;9.00;99.90;;;;;;6218536;23;20139;-77
2023/02/16 02:20:11;;;;;;;48.40;29.30;;;9.10;99.90;;;;;;6245486;23;20164;-76
2023/02/16 02:25:53;;;;;;;44.33;27.73;;;8.90;99.90;;;;;;6245673;23;20193;-75
2023/02/16 02:28:38;;;;;;;44.27;26.63;;;8.80;99.90;;;;;;6218681;23;20148;-76
2023/02/16 02:31:33;;;;;;;46.60;26.40;;;8.70;99.90;;;;;;6245523;23;20128;-76
2023/02/16 02:34:09;;;;;;;48.80;27.17;;;8.70;99.90;;;;;;6245741;23;20162;-76
2023/02/16 02:36:44;;;;;;;45.97;27.47;;;8.70;99.90;;;;;;6245319;23;20188;-77
2023/02/16 02:39:13;;;;;;;44.40;26.17;;;8.80;99.90;;;;;;6218652;23;20615;-75
2023/02/16 02:42:03;;;;;;;45.33;26.50;;;8.80;99.90;;;;;;6218838;23;20222;-77
2023/02/16 02:44:45;;;;;;;43.47;25.80;;;8.90;99.90;;;;;;6218729;23;20147;-77
2023/02/16 02:47:10;;;;;;;50.00;28.13;;;9.00;99.90;;;;;;6245084;23;20185;-76
2023/02/16 02:49:36;;;;;;;47.27;27.60;;;9.10;99.90;;;;;;6245870;23;20139;-76
2023/02/16 02:52:02;;;;;;;48.00;27.10;;;9.00;99.90;;;;;;6218792;23;20230;-76
2023/02/16 03:00:46;;;;;;;43.97;25.77;;;9.00;99.90;;;;;;6245087;23;20501;-71
2023/02/16 03:03:29;;;;;;;45.77;26.43;;;8.90;99.90;;;;;;6245222;23;20124;-71
2023/02/16 03:06:15;;;;;;;48.80;28.93;;;8.80;99.90;;;;;;6245353;23;20524;-71
2023/02/16 03:08:47;;;;;;;47.33;27.17;;;8.90;99.90;;;;;;6245067;23;20160;-71
2023/02/16 03:14:13;;;;;;;47.27;28.23;;;9.20;99.90;;;;;;6245175;23;20167;-71
2023/02/16 03:30:43;;;;;;;42.27;27.80;;;8.90;99.90;;;;;;6246328;23;20209;-71
2023/02/16 03:33:09;;;;;;;46.17;27.03;;;9.00;99.90;;;;;;6220070;23;20139;-71
2023/02/16 03:35:35;;;;;;;46.03;26.60;;;9.10;99.90;;;;;;6220146;23;20144;-71
2023/02/16 03:38:01;;;;;;;42.57;25.70;;;9.10;99.90;;;;;;6246802;23;20139;-71
2023/02/16 03:40:29;;;;;;;45.17;27.80;;;9.10;99.90;;;;;;6247000;23;20167;-71
2023/02/16 03:43:01;;;;;;;41.57;26.13;;;9.10;99.90;;;;;;6219787;23;20163;-71
2023/02/16 03:45:28;;;;;;;47.53;28.53;;;9.00;99.90;;;;;;6219642;23;20140;-72
2023/02/16 03:47:53;;;;;;;44.97;27.13;;;9.10;99.90;;;;;;6246856;23;20165;-71
2023/02/16 03:50:20;;;;;;;44.23;27.17;;;9.20;99.90;;;;;;6220061;23;20144;-71
2023/02/16 03:52:45;;;;;;;44.70;27.40;;;9.10;99.90;;;;;;6246539;23;20155;-71
2023/02/16 03:55:11;;;;;;;44.60;26.70;;;9.20;99.90;;;;;;6244751;23;20231;-78
2023/02/16 03:57:37;;;;;;;45.90;27.50;;;9.20;99.90;;;;;;6246766;23;20235;-73
2023/02/16 04:00:03;;;;;;;46.80;26.90;;;9.30;99.90;;;;;;6219352;23;20171;-73
2023/02/16 04:02:29;;;;;;;44.47;26.17;;;9.30;99.90;;;;;;6246296;23;20144;-73
2023/02/16 04:04:54;;;;;;;44.90;28.33;;;9.20;99.90;;;;;;6245019;23;20514;-73
2023/02/16 04:07:21;;;;;;;39.30;26.17;;;9.20;99.90;;;;;;6219749;23;20148;-73
2023/02/16 04:09:47;;;;;;;46.33;27.03;;;9.20;99.90;;;;;;6246395;23;20136;-73
2023/02/16 04:14:58;;;;;;;42.90;25.67;;;9.20;99.90;;;;;;6246364;23;20178;-73
2023/02/16 04:17:24;;;;;;;43.77;26.70;;;9.30;99.90;;;;;;6219998;23;20151;-74
2023/02/16 04:19:51;;;;;;;38.80;26.07;;;9.30;99.90;;;;;;6246512;23;20212;-73
2023/02/16 04:22:17;;;;;;;43.20;26.70;;;9.30;99.90;;;;;;6246579;23;20127;-73
2023/02/16 04:24:43;;;;;;;41.17;25.63;;;9.10;99.90;;;;;;6246188;23;20151;-73
2023/02/16 04:27:08;;;;;;;42.03;24.93;;;9.10;99.90;;;;;;6194322;23;20155;-72
2023/02/16 04:29:34;;;;;;;41.40;25.80;;;9.00;99.90;;;;;;6219932;23;20518;-72
2023/02/16 04:32:00;;;;;;;45.97;26.67;;;8.80;99.90;;;;;;6246535;23;20131;-72
2023/02/16 04:34:25;;;;;;;41.63;25.97;;;8.80;99.90;;;;;;6246312;23;20521;-72
2023/02/16 04:36:51;;;;;;;44.30;26.07;;;9.20;99.90;;;;;;6246616;23;20136;-71
2023/02/16 04:39:16;;;;;;;44.03;26.17;;;9.40;99.90;;;;;;6246104;23;20167;-73
2023/02/16 04:41:42;;;;;;;40.57;26.27;;;9.40;99.90;;;;;;6218970;23;20576;-72
2023/02/16 04:44:08;;;;;;;41.30;25.33;;;9.60;99.90;;;;;;6246367;23;20220;-73
2023/02/16 04:46:33;;;;;;;42.23;25.93;;;9.30;99.90;;;;;;6194921;23;20234;-72
2023/02/16 04:49:00;;;;;;;43.17;26.57;;;9.20;99.90;;;;;;6219417;23;20166;-72
2023/02/16 04:51:25;;;;;;;40.53;25.60;;;9.30;99.90;;;;;;6246267;23;20141;-73
2023/02/16 04:53:51;;;;;;;39.00;24.37;;;9.20;99.90;;;;;;6246245;23;20151;-72
2023/02/16 04:56:19;;;;;;;43.10;26.30;;;9.30;99.90;;;;;;6219142;23;20171;-72
2023/02/16 04:58:44;;;;;;;41.47;25.90;;;9.60;99.90;;;;;;6245941;23;20204;-73
2023/02/16 05:01:21;;;;;;;44.03;27.47;;;9.60;99.90;;;;;;6246084;23;20159;-72
2023/02/16 05:03:47;;;;;;;38.73;24.47;;;9.60;99.90;;;;;;6219411;23;20142;-73
2023/02/16 05:06:12;;;;;;;43.20;25.40;;;9.50;99.90;;;;;;6246019;23;20132;-73
2023/02/16 05:08:38;;;;;;;46.23;25.50;;;9.40;99.90;;;;;;6219219;23;20139;-72
2023/02/16 05:16:33;;;;;;;40.33;24.60;;;9.50;99.90;;;;;;6245926;23;20230;-73
2023/02/16 05:18:59;;;;;;;42.53;25.30;;;9.70;99.90;;;;;;6245548;23;20163;-73
2023/02/16 05:21:30;;;;;;;40.70;25.07;;;9.60;99.90;;;;;;6245751;23;20528;-72
2023/02/16 05:24:04;;;;;;;39.13;24.43;;;9.40;99.90;;;;;;6219279;23;20593;-73
2023/02/16 05:26:30;;;;;;;39.47;23.93;;;9.40;99.90;;;;;;6218972;23;20140;-72
2023/02/16 05:28:57;;;;;;;41.40;25.00;;;9.20;99.90;;;;;;6219135;23;20135;-73
2023/02/16 05:31:24;;;;;;;39.67;23.80;;;9.20;99.90;;;;;;6245818;23;20461;-73
2023/02/16 05:33:50;;;;;;;44.63;26.07;;;9.20;99.90;;;;;;6219705;23;20561;-73
2023/02/16 05:36:16;;;;;;;33.83;22.93;;;9.20;99.90;;;;;;6246017;23;20162;-73
2023/02/16 05:38:42;;;;;;;40.10;25.27;;;9.20;99.90;;;;;;6219066;23;20141;-73
2023/02/16 05:41:08;;;;;;;39.17;24.20;;;9.30;99.90;;;;;;6218284;23;20167;-73
2023/02/16 05:43:34;;;;;;;38.63;24.03;;;9.40;99.90;;;;;;6218965;23;20147;-73
2023/02/16 05:46:07;;;;;;;36.03;24.00;;;9.50;99.90;;;;;;6219376;23;20662;-72
2023/02/16 05:48:33;;;;;;;36.43;23.73;;;9.40;99.90;;;;;;6219567;23;20611;-73
2023/02/16 05:50:59;;;;;;;36.97;23.53;;;9.60;99.90;;;;;;6218772;23;20561;-72
2023/02/16 05:53:25;;;;;;;39.07;23.90;;;9.40;99.90;;;;;;6245656;23;20151;-73
2023/02/16 05:55:50;;;;;;;37.87;24.70;;;9.30;99.90;;;;;;6218885;23;20170;-73
2023/02/16 05:58:18;;;;;;;39.13;25.30;;;9.60;99.90;;;;;;6220363;23;20237;-73
2023/02/16 06:00:45;;;;;;;40.00;24.20;;;9.50;99.90;;;;;;6246436;23;20163;-74
2023/02/16 06:03:11;;;;;;;40.70;25.47;;;9.40;99.90;;;;;;6219860;23;20553;-73
2023/02/16 06:05:36;;;;;;;42.33;25.43;;;9.40;99.90;;;;;;6246225;23;20158;-74
2023/02/16 06:08:05;;;;;;;38.63;24.40;;;9.60;99.90;;;;;;6245442;23;20132;-73
2023/02/16 06:10:31;;;;;;;42.23;24.77;;;9.50;99.90;;;;;;6243723;23;20186;-73
2023/02/16 06:12:56;;;;;;;37.83;23.50;;;9.50;99.90;;;;;;6219218;23;20158;-73
2023/02/16 06:15:22;;;;;;;40.03;24.57;;;9.60;99.90;;;;;;6245347;23;20162;-73
2023/02/16 06:17:48;;;;;;;39.03;24.47;;;9.60;99.90;;;;;;6245740;23;20127;-72
2023/02/16 06:20:13;;;;;;;41.17;25.67;;;9.70;99.90;;;;;;6245791;23;20167;-73
2023/02/16 06:22:40;;;;;;;43.33;24.83;;;9.70;99.90;;;;;;6219180;23;20200;-73
2023/02/16 06:25:06;;;;;;;39.33;25.60;;;9.50;99.90;;;;;;6245715;23;20139;-73
2023/02/16 06:27:31;;;;;;;37.43;23.77;;;9.60;99.90;;;;;;6245485;23;20135;-73
2023/02/16 06:29:58;;;;;;;38.67;24.13;;;9.60;99.90;;;;;;6245772;23;20136;-73
2023/02/16 06:32:24;;;;;;;39.33;24.17;;;9.60;99.90;;;;;;6245929;23;20127;-73
2023/02/16 06:34:50;;;;;;;40.40;24.40;;;9.40;99.90;;;;;;6245595;23;20202;-73
2023/02/16 06:37:16;;;;;;;42.90;24.73;;;9.50;99.90;;;;;;6218372;23;20139;-72
2023/02/16 06:39:41;;;;;;;42.33;23.83;;;9.60;99.90;;;;;;6245301;23;20179;-73
2023/02/16 06:42:07;;;;;;;39.07;24.37;;;9.40;99.90;;;;;;6245263;23;20206;-71
2023/02/16 06:44:37;;;;;;;41.17;24.83;;;9.40;99.90;;;;;;6245692;23;20139;-78
2023/02/16 06:47:02;;;;;;;40.30;24.47;;;9.30;99.90;;;;;;6219137;23;20517;-72
2023/02/16 06:49:29;;;;;;;39.33;24.13;;;9.20;99.90;;;;;;6245651;23;20140;-73
2023/02/16 06:51:55;;;;;;;41.17;23.33;;;9.20;99.90;;;;;;6244960;23;20155;-75
2023/02/16 06:54:24;;;;;;;40.27;24.87;;;9.20;99.90;;;;;;6245746;23;20142;-75
2023/02/16 06:56:50;;;;;;;39.43;24.30;;;9.30;99.90;;;;;;6218892;23;20167;-78
2023/02/16 06:59:16;;;;;;;44.30;24.77;;;9.40;99.90;;;;;;6218382;23;20228;-77
2023/02/16 07:01:41;;;;;;;40.67;25.13;;;9.40;99.90;;;;;;6218319;23;20170;-76
2023/02/16 07:04:07;;;;;;;38.93;24.10;;;9.20;99.90;;;;;;6218126;23;20146;-76
2023/02/16 07:06:33;;;;;;;40.70;24.47;;;9.30;99.90;;;;;;6246586;23;20638;-76
2023/02/16 07:08:59;;;;;;;41.50;23.83;;;9.40;99.90;;;;;;6220528;23;20139;-77
2023/02/16 07:11:24;;;;;;;37.97;24.43;;;9.50;99.90;;;;;;6219879;23;20135;-76
2023/02/16 07:13:50;;;;;;;40.87;25.70;;;9.40;99.90;;;;;;6220806;23;20166;-76
2023/02/16 07:16:16;;;;;;;42.10;24.57;;;9.40;99.90;;;;;;6246769;23;20135;-76
2023/02/16 07:18:43;;;;;;;41.67;23.43;;;9.30;99.90;;;;;;6219747;23;20764;-76
2023/02/16 07:21:08;;;;;;;42.17;26.00;;;9.30;99.90;;;;;;6219497;23;20624;-76
2023/02/16 07:23:34;;;;;;;40.20;24.60;;;9.30;99.90;;;;;;6220085;23;20155;-76
2023/02/16 07:26:00;;;;;;;44.60;24.83;;;9.30;99.90;;;;;;6247171;23;20128;-76
2023/02/16 07:28:25;;;;;;;42.93;24.97;;;9.30;99.90;;;;;;6219672;23;20175;-76
2023/02/16 07:30:51;;;;;;;40.53;24.70;;;9.50;99.90;;;;;;6245465;23;20538;-76
2023/02/16 07:33:17;;;;;;;42.53;25.17;;;9.60;99.90;;;;;;6219729;23;20159;-75
2023/02/16 07:35:43;;;;;;;43.97;25.63;;;9.60;99.90;;;;;;6219760;23;20193;-76
2023/02/16 07:38:09;;;;;;;40.00;25.33;;;9.40;99.90;;;;;;6245419;23;20178;-75
2023/02/16 07:40:38;;;;;;;39.10;25.10;;;9.50;99.90;;;;;;6246679;23;20163;-76
2023/02/16 07:43:06;;;;;;;40.07;24.23;;;9.40;99.90;;;;;;6219609;23;20573;-76
2023/02/16 07:45:32;;;;;;;41.00;25.10;;;9.40;99.90;;;;;;6220403;23;20530;-76
2023/02/16 07:48:02;;;;;;;46.20;26.43;;;9.60;99.90;;;;;;6220595;23;20460;-77
2023/02/16 07:50:28;;;;;;;38.93;24.33;;;9.50;99.90;;;;;;6220737;23;20222;-76
2023/02/16 07:52:54;;;;;;;40.57;24.80;;;9.50;99.90;;;;;;6220235;23;20147;-75
2023/02/16 07:55:19;;;;;;;46.07;24.53;;;9.40;99.90;;;;;;6220075;23;20518;-75
2023/02/16 07:57:48;;;;;;;40.60;24.20;;;9.40;99.90;;;;;;6219770;23;20156;-75
2023/02/16 08:00:14;;;;;;;42.63;25.00;;;9.50;99.90;;;;;;6220206;23;20171;-74
2023/02/16 08:02:40;;;;;;;40.27;24.37;;;9.40;99.90;;;;;;6219827;23;20148;-75
2023/02/16 08:05:05;;;;;;;38.53;23.67;;;9.40;99.90;;;;;;6219694;23;20143;-75
2023/02/16 08:07:31;;;;;;;44.00;24.50;;;9.30;99.90;;;;;;6245228;23;20148;-75
2023/02/16 08:09:59;;;;;;;41.23;23.63;;;9.30;99.90;;;;;;6219871;23;20203;-75
2023/02/16 08:12:24;;;;;;;40.30;25.17;;;9.20;99.90;;;;;;6220431;23;20209;-75
2023/02/16 08:14:50;;;;;;;40.73;24.03;;;9.20;99.90;;;;;;6247151;23;20161;-76
2023/02/16 08:17:15;;;;;;;42.03;25.17;;;9.30;99.90;;;;;;6219191;23;20159;-76
2023/02/16 08:19:42;;;;;;;43.37;23.80;;;9.40;99.90;;;;;;6220259;23;20170;-75
2023/02/16 08:22:08;;;;;;;35.70;23.27;;;9.70;99.90;;;;;;6247902;23;20522;-76
2023/02/16 08:24:34;;;;;;;40.13;23.80;;;9.70;99.90;;;;;;6220759;23;20143;-76
2023/02/16 08:27:03;;;;;;;36.87;24.13;;;9.70;99.90;;;;;;6220746;23;20178;-76
2023/02/16 08:29:29;;;;;;;36.90;23.30;;;9.70;99.90;;;;;;6246546;23;20136;-76
2023/02/16 08:31:55;;;;;;;38.50;25.10;;;9.90;99.90;;;;;;6219796;23;20238;-75
2023/02/16 08:34:22;;;;;;;38.73;24.17;;;10.00;99.90;;;;;;6246495;23;20584;-76
2023/02/16 08:36:52;;;;;;;41.73;24.47;;;10.00;99.90;;;;;;6244657;23;20532;-76
2023/02/16 08:39:20;;;;;;;39.73;23.03;;;10.00;99.90;;;;;;6246240;23;20164;-75
2023/02/16 08:41:47;;;;;;;41.50;24.63;;;9.90;99.90;;;;;;6219519;23;20147;-76
2023/02/16 08:44:14;;;;;;;39.50;23.97;;;9.80;99.90;;;;;;6219673;23;20219;-75
2023/02/16 08:46:43;;;;;;;40.43;24.63;;;9.70;99.90;;;;;;6219655;23;20140;-75
2023/02/16 08:49:10;;;;;;;42.83;24.60;;;9.90;99.90;;;;;;6220460;23;20205;-76
2023/02/16 08:51:41;;;;;;;41.60;23.73;;;9.90;99.90;;;;;;6219592;23;20597;-76
2023/02/16 08:54:08;;;;;;;40.10;24.47;;;9.60;99.90;;;;;;6219710;23;20214;-76
2023/02/16 08:56:34;;;;;;;47.20;25.57;;;9.40;99.90;;;;;;6220044;23;20545;-76
2023/02/16 08:59:00;;;;;;;41.73;24.00;;;9.20;99.90;;;;;;6246189;23;20136;-76
2023/02/16 09:01:27;;;;;;;42.13;25.67;;;9.30;99.90;;;;;;6219021;23;20140;-76
2023/02/16 09:03:53;;;;;;;42.83;25.27;;;9.40;99.90;;;;;;6244511;23;20147;-77
2023/02/16 09:06:21;;;;;;;45.00;24.73;;;9.50;99.90;;;;;;6219684;23;20519;-77
2023/02/16 09:09:07;;;;;;;47.07;25.47;;;9.30;99.90;;;;;;6219527;23;20196;-76
2023/02/16 09:11:33;;;;;;;47.27;25.73;;;9.20;99.90;;;;;;6219466;23;20220;-76
2023/02/16 09:14:03;;;;;;;45.67;25.47;;;9.20;99.90;;;;;;6219326;23;20143;-75
2023/02/16 09:16:34;;;;;;;45.17;26.50;;;9.10;99.90;;;;;;6218618;23;20221;-76
2023/02/16 09:19:01;;;;;;;41.43;24.87;;;9.10;99.90;;;;;;6218757;23;20146;-75
2023/02/16 09:21:32;;;;;;;41.93;25.90;;;9.10;99.90;;;;;;6219233;23;20171;-75
2023/02/16 09:24:03;;;;;;;43.57;24.43;;;9.30;99.90;;;;;;6218937;23;20203;-76
2023/02/16 09:26:31;;;;;;;40.87;26.53;;;9.30;99.90;;;;;;6219041;23;20146;-76
2023/02/16 09:28:57;;;;;;;44.77;26.40;;;9.40;99.90;;;;;;6218963;23;20158;-76
2023/02/16 09:31:27;;;;;;;41.03;25.93;;;9.50;99.90;;;;;;6218820;23;20143;-76
2023/02/16 09:34:12;;;;;;;39.97;24.90;;;9.40;99.90;;;;;;6219233;23;20148;-76
2023/02/16 09:36:40;;;;;;;42.43;24.50;;;9.40;99.90;;;;;;6219367;23;20144;-76
2023/02/16 09:39:06;;;;;;;42.63;26.10;;;9.40;99.90;;;;;;6219594;23;20143;-76
2023/02/16 09:41:58;;;;;;;44.10;25.80;;;9.20;99.90;;;;;;6244315;23;20147;-75
2023/02/16 09:44:57;;;;;;;46.77;24.47;;;9.40;99.90;;;;;;6246025;23;20210;-76
2023/02/16 09:47:30;;;;;;;46.87;26.00;;;9.50;99.90;;;;;;6240671;23;20152;-76
2023/02/16 09:50:05;;;;;;;41.47;24.80;;;9.20;99.90;;;;;;6218790;23;20198;-76
2023/02/16 09:52:39;;;;;;;40.37;25.27;;;9.20;99.90;;;;;;6218857;23;20583;-76
2023/02/16 09:55:10;;;;;;;41.40;24.80;;;9.40;99.90;;;;;;6245380;23;20214;-76
2023/02/16 09:57:58;;;;;;;45.20;26.90;;;9.40;99.90;;;;;;6218346;23;20162;-76
2023/02/16 10:00:33;;;;;;;47.27;25.27;;;9.50;99.90;;;;;;6218227;23;20651;-76
2023/02/16 10:03:17;;;;;;;41.60;25.53;;;9.60;99.90;;;;;;6245435;23;20459;-76
2023/02/16 10:06:21;;;;;;;43.57;24.93;;;9.40;99.90;;;;;;6218533;23;20140;-76
2023/02/16 10:08:59;;;;;;;40.87;25.27;;;9.40;99.90;;;;;;6218432;23;20146;-76
2023/02/16 10:11:40;;;;;;;44.73;26.03;;;9.50;99.90;;;;;;6218432;23;20193;-76
2023/02/16 10:14:31;;;;;;;42.20;26.93;;;9.50;99.90;;;;;;6218383;23;20151;-76
2023/02/16 10:17:11;;;;;;;41.47;24.27;;;9.60;99.90;;;;;;6217924;23;20148;-76
2023/02/16 10:19:47;;;;;;;43.10;25.57;;;9.50;99.90;;;;;;6218261;23;20175;-76
2023/02/16 10:22:37;;;;;;;43.70;26.70;;;9.60;99.90;;;;;;6245599;23;20143;-76
2023/02/16 10:25:02;;;;;;;41.70;25.43;;;9.70;99.90;;;;;;6218234;23;20155;-76
2023/02/16 10:27:38;;;;;;;40.23;24.77;;;9.80;99.90;;;;;;6218620;23;20180;-76
2023/02/16 10:30:31;;;;;;;41.87;25.57;;;10.00;99.90;;;;;;6218060;23;20208;-76
2023/02/16 10:33:08;;;;;;;42.43;25.43;;;10.10;99.90;;;;;;6217005;23;20158;-77
2023/02/16 10:35:45;;;;;;;40.77;24.93;;;10.30;99.90;;;;;;6218310;23;20229;-77
2023/02/16 10:38:32;;;;;;;40.00;25.57;;;10.40;99.90;;;;;;6218036;23;20177;-77
2023/02/16 10:41:02;;;;;;;40.63;24.30;;;10.50;99.90;;;;;;6220822;23;20176;-76
2023/02/16 10:43:38;;;;;;;38.30;23.80;;;10.80;99.90;;;;;;6221494;23;20148;-76
2023/02/16 10:46:05;;;;;;;38.47;24.60;;;10.90;99.90;;;;;;6248205;23;20584;-76
2023/02/16 10:48:31;;;;;;;38.70;24.10;;;11.10;99.90;;;;;;6221485;23;20146;-76
2023/02/16 10:51:01;;;;;;;37.80;23.23;;;11.30;99.90;;;;;;6248586;23;20235;-76
2023/02/16 10:53:36;;;;;;;38.03;23.67;;;11.40;99.90;;;;;;6221489;23;20152;-76
2023/02/16 10:56:14;;;;;;;38.03;23.90;;;11.50;99.90;;;;;;6221215;23;20165;-75
2023/02/16 10:58:41;;;;;;;36.60;22.67;;;11.50;99.90;;;;;;6221203;23;20149;-76
2023/02/16 11:01:15;;;;;;;39.40;23.83;;;11.30;99.90;;;;;;6248425;23;20189;-76
2023/02/16 11:03:52;;;;;;;34.47;22.20;;;11.50;99.90;;;;;;6221472;23;20153;-76
2023/02/16 11:06:27;;;;;;;35.33;22.70;;;11.80;99.90;;;;;;6221611;23;20233;-76
2023/02/16 11:08:59;;;;;;;34.17;22.93;;;12.00;99.90;;;;;;6221968;23;20487;-77
2023/02/16 11:11:28;;;;;;;33.73;22.07;;;12.10;99.90;;;;;;6221660;23;20151;-76
2023/02/16 11:14:04;;;;;;;39.03;22.73;;;12.20;99.90;;;;;;6248602;23;20143;-76
2023/02/16 11:16:30;;;;;;;37.13;23.43;;;12.20;99.90;;;;;;6221964;23;20145;-76
2023/02/16 11:19:02;;;;;;;30.83;21.43;;;12.30;99.90;;;;;;6248715;23;20150;-76
2023/02/16 11:21:49;;;;;;;42.40;22.20;;;12.40;99.90;;;;;;6222143;23;20193;-76
2023/02/16 11:24:32;;;;;;;34.33;21.67;;;12.70;99.90;;;;;;6248924;23;20158;-76
2023/02/16 11:27:01;;;;;;;31.97;19.97;;;12.70;99.90;;;;;;6221935;23;20229;-76
2023/02/16 11:29:27;;;;;;;41.80;25.30;;;12.50;99.90;;;;;;6222063;23;20160;-76
2023/02/16 11:31:54;;;;;;;38.37;21.73;;;12.80;99.90;;;;;;6221986;23;20569;-75
2023/02/16 11:34:33;;;;;;;30.63;19.23;;;12.70;99.90;;;;;;6249038;23;20172;-75
2023/02/16 11:37:04;;;;;;;29.97;20.50;;;12.60;99.90;;;;;;6222069;23;20146;-76
2023/02/16 11:39:45;;;;;;;42.87;20.27;;;12.90;99.90;;;;;;6221962;23;20166;-77
2023/02/16 11:42:42;;;;;;;27.47;18.30;;;13.10;99.90;;;;;;6248717;23;20135;-76
2023/02/16 11:45:40;;;;;;;28.13;18.90;;;12.80;99.90;;;;;;6248555;23;20139;-76
2023/02/16 11:48:12;;;;;;;28.10;18.70;;;13.10;99.90;;;;;;6246736;23;20490;-76
2023/02/16 11:51:04;;;;;;;27.33;17.17;;;13.20;99.90;;;;;;6221523;23;20269;-76
2023/02/16 11:53:32;;;;;;;23.63;17.00;;;13.30;99.90;;;;;;6220072;23;20185;-77
2023/02/16 11:56:12;;;;;;;23.97;15.93;;;13.50;99.90;;;;;;6219755;23;20253;-77
2023/02/16 11:58:39;;;;;;;26.53;16.63;;;13.60;99.90;;;;;;6246997;23;20143;-75
2023/02/16 12:01:46;;;;;;;24.17;16.70;;;14.00;99.90;;;;;;6246769;23;20233;-75
2023/02/16 12:04:43;;;;;;;26.30;15.00;;;14.50;99.90;;;;;;6204234;23;20219;-76
2023/02/16 12:07:15;;;;;;;23.03;15.37;;;14.60;99.90;;;;;;6219957;23;20577;-76
2023/02/16 12:09:51;;;;;;;23.23;14.90;;;14.40;99.90;;;;;;6219461;23;20147;-76
2023/02/16 12:12:37;;;;;;;23.30;15.67;;;14.50;99.90;;;;;;6219159;23;20151;-76
2023/02/16 12:15:27;;;;;;;29.77;16.40;;;14.90;99.90;;;;;;6219325;23;20151;-76
2023/02/16 12:18:02;;;;;;;25.37;15.83;;;15.20;99.90;;;;;;6219651;23;20167;-76
2023/02/16 12:20:50;;;;;;;26.57;17.13;;;15.30;99.90;;;;;;6219273;23;20178;-75
2023/02/16 12:24:00;;;;;;;23.53;14.87;;;15.20;99.90;;;;;;6219513;23;20143;-76
2023/02/16 12:26:32;;;;;;;23.77;15.30;;;14.90;99.90;;;;;;6230277;23;20377;-76
2023/02/16 12:29:19;;;;;;;26.17;15.93;;;14.40;99.90;;;;;;6220095;23;20227;-77
2023/02/16 12:32:06;;;;;;;22.70;15.23;;;14.10;99.90;;;;;;6219708;23;20159;-76
2023/02/16 12:34:53;;;;;;;22.83;15.10;;;14.70;99.90;;;;;;6219252;23;20229;-77
2023/02/16 12:37:28;;;;;;;22.00;14.77;;;15.00;99.90;;;;;;6246019;23;20199;-77
2023/02/16 12:40:25;;;;;;;22.83;14.80;;;15.00;99.90;;;;;;6220929;23;20612;-76
2023/02/16 12:43:03;;;;;;;22.73;14.50;;;15.20;99.90;;;;;;6221188;23;20161;-75
2023/02/16 12:45:33;;;;;;;25.07;14.87;;;15.80;99.90;;;;;;6219283;23;20167;-77
2023/02/16 12:48:39;;;;;;;23.93;16.10;;;16.20;99.90;;;;;;6219426;23;20156;-76
2023/02/16 12:51:14;;;;;;;22.17;15.10;;;16.80;99.90;;;;;;6219767;23;20147;-76
2023/02/16 12:54:09;;;;;;;29.33;15.57;;;17.20;99.90;;;;;;6246400;23;20208;-77
2023/02/16 12:56:51;;;;;;;24.27;13.77;;;17.30;99.90;;;;;;6190227;23;20174;-76
2023/02/16 12:59:19;;;;;;;17.50;13.00;;;17.00;99.90;;;;;;6219490;23;20306;-76
2023/02/16 13:01:48;;;;;;;20.67;13.83;;;17.10;99.90;;;;;;6219365;23;20583;-76
2023/02/16 13:04:41;;;;;;;29.80;14.87;;;17.10;99.90;;;;;;6218858;23;20149;-76
2023/02/16 13:07:21;;;;;;;18.47;11.97;;;17.50;99.90;;;;;;6219302;23;20155;-75
2023/02/16 13:09:55;;;;;;;20.27;13.70;;;17.60;99.90;;;;;;6219115;23;20151;-76
2023/02/16 13:12:42;;;;;;;24.83;15.40;;;17.60;99.90;;;;;;6245777;23;20166;-76
2023/02/16 13:15:32;;;;;;;23.10;14.83;;;17.80;99.90;;;;;;6219114;23;20161;-77
2023/02/16 13:18:10;;;;;;;27.67;15.63;;;17.40;99.90;;;;;;6219556;23;20150;-76
2023/02/16 13:20:41;;;;;;;23.37;15.30;;;17.00;99.90;;;;;;6219284;23;20175;-76
2023/02/16 13:23:40;;;;;;;26.57;16.27;;;16.60;99.90;;;;;;6219183;23;20145;-75
2023/02/16 13:26:27;;;;;;;24.93;14.83;;;16.30;99.90;;;;;;6245795;23;20241;-76
2023/02/16 13:29:05;;;;;;;29.03;16.47;;;15.90;99.90;;;;;;6219475;23;20142;-76
2023/02/16 13:31:56;;;;;;;26.67;16.17;;;15.60;99.90;;;;;;6219337;23;20523;-76
2023/02/16 13:34:42;;;;;;;24.77;15.33;;;16.20;99.90;;;;;;6219322;23;20235;-75
2023/02/16 13:37:38;;;;;;;26.17;15.97;;;15.70;99.90;;;;;;6218532;23;20154;-76
2023/02/16 13:40:23;;;;;;;28.77;15.83;;;15.50;99.90;;;;;;6218379;23;20301;-76
2023/02/16 13:49:42;;;;;;;27.50;16.93;;;15.50;99.90;;;;;;6199812;23;20425;-79